Time;durP1;ratioP1;P1;durP2;ratioP2;P2;SDS_P1;SDS_P2;PMS_P1;PMS_P2;Temp;Humidity;BMP_temperature;BMP_pressure;BME280_temperature;BME280_humidity;BME280_pressure;Samples;Min_cycle;Max_cycle;Signal;HPM_P1;HPM_P2
2023/10/21 00:02:17;;;;;;;1.00;0.90;;;;;;;12.52;83.76;95437.81;5085747;28;20196;-71
2023/10/21 00:05:02;;;;;;;1.27;1.10;;;;;;;12.64;83.44;95446.47;5084043;28;20316;-71
2023/10/21 00:07:31;;;;;;;1.20;1.00;;;;;;;12.68;83.18;95443.97;5083425;28;20301;-71
2023/10/21 00:09:58;;;;;;;1.10;0.80;;;;;;;12.67;83.03;95458.66;5083212;28;20296;-71
2023/10/21 00:12:25;;;;;;;0.90;0.70;;;;;;;12.87;81.49;95463.16;5084603;28;20261;-72
2023/10/21 00:14:52;;;;;;;2.03;0.93;;;;;;;12.98;80.73;95467.44;5081963;28;20409;-71
2023/10/21 00:17:19;;;;;;;0.95;0.80;;;;;;;13.13;79.46;95462.72;5083194;28;20304;-71
2023/10/21 00:19:46;;;;;;;1.52;0.90;;;;;;;13.23;78.88;95464.59;5081462;28;20228;-71
2023/10/21 00:22:13;;;;;;;0.70;0.68;;;;;;;13.52;76.62;95466.53;5083915;28;20623;-72
2023/10/21 00:24:41;;;;;;;0.80;0.73;;;;;;;13.63;76.45;95468.09;5083140;28;20294;-72
2023/10/21 00:27:07;;;;;;;1.83;1.13;;;;;;;13.75;75.83;95487.53;5085458;28;20457;-72
2023/10/21 00:29:35;;;;;;;1.17;0.60;;;;;;;13.78;75.41;95470.66;5080802;28;20227;-72
2023/10/21 00:32:04;;;;;;;0.93;0.83;;;;;;;13.85;75.38;95479.31;5077745;28;20192;-72
2023/10/21 00:34:30;;;;;;;1.07;0.97;;;;;;;13.94;74.41;95487.66;5087471;28;20455;-72
2023/10/21 00:36:57;;;;;;;1.27;0.70;;;;;;;14.04;74.28;95490.25;5079502;28;20924;-71
2023/10/21 00:39:24;;;;;;;1.13;0.80;;;;;;;14.10;73.90;95484.50;5085631;28;21191;-72
2023/10/21 00:41:52;;;;;;;0.80;0.60;;;;;;;14.18;73.50;95487.69;5080293;28;20592;-71
2023/10/21 00:44:19;;;;;;;1.43;0.60;;;;;;;14.23;72.97;95484.94;5086728;28;20475;-72
2023/10/21 00:46:46;;;;;;;1.30;0.60;;;;;;;14.19;73.24;95497.47;5083843;28;20799;-72
2023/10/21 00:49:13;;;;;;;1.43;0.63;;;;;;;14.31;72.25;95492.44;5079890;28;20804;-72
2023/10/21 00:51:41;;;;;;;1.10;0.80;;;;;;;14.35;72.45;95485.31;5078918;28;20553;-72
2023/10/21 00:54:08;;;;;;;0.60;0.50;;;;;;;14.30;72.54;95488.09;5080884;28;21404;-71
2023/10/21 00:56:34;;;;;;;0.60;0.60;;;;;;;14.36;72.17;95484.22;5083401;28;20505;-72
2023/10/21 00:59:03;;;;;;;0.80;0.60;;;;;;;14.30;72.50;95490.81;5073476;28;20485;-71
2023/10/21 01:01:30;;;;;;;1.20;0.60;;;;;;;14.29;72.50;95494.66;5078110;28;20535;-72
2023/10/21 01:03:57;;;;;;;0.60;0.60;;;;;;;14.23;73.03;95509.41;5080666;28;20559;-72
2023/10/21 01:06:24;;;;;;;0.60;0.60;;;;;;;14.13;73.22;95519.28;5083690;28;20492;-72
2023/10/21 01:08:51;;;;;;;1.00;0.60;;;;;;;14.09;73.36;95511.97;5080651;28;20534;-70
2023/10/21 01:11:17;;;;;;;1.10;0.70;;;;;;;14.18;73.23;95536.66;5082117;28;20941;-71
2023/10/21 01:13:45;;;;;;;0.77;0.70;;;;;;;14.16;73.21;95544.28;5086255;28;20918;-71
2023/10/21 01:16:13;;;;;;;0.93;0.80;;;;;;;14.05;73.64;95549.81;5086197;28;20569;-71
2023/10/21 01:18:40;;;;;;;0.90;0.60;;;;;;;14.08;73.48;95548.44;5078838;28;20459;-71
2023/10/21 01:21:08;;;;;;;1.10;0.60;;;;;;;14.18;73.20;95558.44;5081613;28;20459;-72
2023/10/21 01:23:36;;;;;;;2.00;0.70;;;;;;;14.16;73.26;95572.31;5080559;28;20587;-71
2023/10/21 01:26:04;;;;;;;0.60;0.50;;;;;;;14.17;73.29;95573.94;5083313;28;20541;-71
2023/10/21 01:28:32;;;;;;;0.70;0.60;;;;;;;14.16;73.42;95582.38;5081654;28;20463;-71
2023/10/21 01:30:59;;;;;;;1.47;0.77;;;;;;;14.16;73.41;95588.63;5083114;28;20953;-72
2023/10/21 01:33:26;;;;;;;0.80;0.60;;;;;;;14.24;73.46;95585.31;5089226;28;20546;-72
2023/10/21 01:35:53;;;;;;;1.10;0.60;;;;;;;14.23;73.01;95588.31;5085641;28;20852;-71
2023/10/21 01:38:20;;;;;;;0.67;0.57;;;;;;;14.21;73.07;95604.09;5081605;28;20549;-71
2023/10/21 01:40:49;;;;;;;2.10;0.60;;;;;;;14.27;72.84;95611.13;5088108;28;20457;-71
2023/10/21 01:43:16;;;;;;;0.70;0.60;;;;;;;14.30;72.89;95607.81;5090691;28;20478;-71
2023/10/21 01:45:43;;;;;;;1.33;0.50;;;;;;;14.35;72.56;95614.03;5087895;28;20517;-72
2023/10/21 01:48:09;;;;;;;0.83;0.70;;;;;;;14.31;72.93;95617.59;5083541;28;21009;-71
2023/10/21 01:50:36;;;;;;;0.97;0.60;;;;;;;14.37;72.95;95616.47;5085171;28;20502;-71
2023/10/21 01:53:05;;;;;;;0.60;0.60;;;;;;;14.29;72.83;95619.81;5079774;28;20475;-71
2023/10/21 01:55:32;;;;;;;0.70;0.60;;;;;;;14.16;73.64;95625.91;5089291;28;20443;-72
2023/10/21 01:58:00;;;;;;;1.73;0.60;;;;;;;14.21;73.22;95644.91;5087325;28;20534;-72
2023/10/21 02:00:27;;;;;;;0.70;0.60;;;;;;;14.27;72.90;95643.78;5088839;28;20516;-72
2023/10/21 02:02:55;;;;;;;0.70;0.60;;;;;;;14.28;72.76;95648.13;5086926;28;20499;-72
2023/10/21 02:05:24;;;;;;;1.10;0.60;;;;;;;14.27;73.26;95658.19;5090452;28;20482;-71
2023/10/21 02:07:51;;;;;;;0.75;0.50;;;;;;;14.23;73.00;95669.94;5082792;28;20526;-71
2023/10/21 02:10:18;;;;;;;0.73;0.50;;;;;;;14.28;72.59;95664.44;5078962;28;20196;-72
2023/10/21 02:12:45;;;;;;;0.93;0.60;;;;;;;14.25;73.00;95670.47;5083738;28;20537;-71
2023/10/21 02:15:14;;;;;;;0.90;0.63;;;;;;;14.23;72.91;95675.38;5088315;28;20442;-72
2023/10/21 02:17:42;;;;;;;0.88;0.50;;;;;;;14.31;72.67;95674.75;5086131;28;20486;-72
2023/10/21 02:20:11;;;;;;;0.70;0.50;;;;;;;14.35;72.04;95689.41;5080045;28;20282;-72
2023/10/21 02:22:38;;;;;;;0.60;0.60;;;;;;;14.35;72.04;95689.41;5090720;28;20450;-71
2023/10/21 02:25:06;;;;;;;0.77;0.50;;;;;;;14.35;71.89;95694.84;5087204;28;20531;-71
2023/10/21 02:27:33;;;;;;;1.53;0.60;;;;;;;14.42;71.84;95693.47;5087565;28;20511;-71
2023/10/21 02:30:00;;;;;;;0.50;0.50;;;;;;;14.40;71.47;95698.34;5076904;28;20452;-71
2023/10/21 02:32:27;;;;;;;0.70;0.50;;;;;;;14.41;71.69;95700.00;5086355;28;20452;-72
2023/10/21 02:34:55;;;;;;;1.80;0.60;;;;;;;14.35;71.28;95690.22;5087801;28;20952;-71
2023/10/21 02:37:22;;;;;;;1.27;0.57;;;;;;;14.37;71.29;95706.25;5070462;28;20479;-71
2023/10/21 02:39:49;;;;;;;0.90;0.50;;;;;;;14.37;71.29;95708.97;5079633;28;20460;-72
2023/10/21 02:42:16;;;;;;;1.17;0.50;;;;;;;14.37;71.09;95707.06;5084120;28;20455;-70
2023/10/21 02:44:43;;;;;;;1.13;0.70;;;;;;;14.33;71.42;95718.81;5088016;28;20512;-70
2023/10/21 02:47:09;;;;;;;1.00;0.50;;;;;;;14.40;71.35;95724.75;5085478;28;20484;-72
2023/10/21 02:49:37;;;;;;;1.20;0.70;;;;;;;14.40;71.33;95730.19;5083974;28;20999;-71
2023/10/21 02:52:04;;;;;;;1.53;0.67;;;;;;;14.37;71.46;95737.00;5084092;28;20477;-72
2023/10/21 02:54:31;;;;;;;0.70;0.50;;;;;;;14.26;71.68;95730.03;5076973;28;20472;-72
2023/10/21 02:56:58;;;;;;;0.60;0.50;;;;;;;14.19;72.04;95740.41;5085851;28;20558;-71
2023/10/21 02:59:24;;;;;;;0.60;0.50;;;;;;;14.27;71.66;95742.53;5089116;28;20530;-71
2023/10/21 03:01:51;;;;;;;0.67;0.40;;;;;;;14.28;71.84;95748.81;5074637;28;20443;-72
2023/10/21 03:04:18;;;;;;;0.90;0.50;;;;;;;14.21;71.94;95751.00;5086016;28;20552;-71
2023/10/21 03:06:46;;;;;;;0.70;0.43;;;;;;;14.16;72.69;95770.06;5087527;28;20490;-71
2023/10/21 03:09:15;;;;;;;0.60;0.40;;;;;;;14.15;72.40;95771.16;5084145;28;20514;-71
2023/10/21 03:11:43;;;;;;;0.60;0.50;;;;;;;14.09;72.48;95768.47;5077756;28;20493;-71
2023/10/21 03:14:09;;;;;;;0.60;0.40;;;;;;;14.04;72.86;95754.91;5087166;28;20790;-71
2023/10/21 03:16:37;;;;;;;2.00;0.53;;;;;;;14.09;72.77;95770.38;5088340;28;20505;-72
2023/10/21 03:19:05;;;;;;;0.50;0.50;;;;;;;13.97;73.12;95770.69;5080644;28;20564;-71
2023/10/21 03:21:31;;;;;;;0.70;0.50;;;;;;;13.98;73.23;95777.78;5084375;28;20434;-71
2023/10/21 03:24:00;;;;;;;1.00;0.60;;;;;;;13.96;73.24;95779.97;5088969;28;20470;-71
2023/10/21 03:26:26;;;;;;;0.80;0.60;;;;;;;14.02;73.05;95792.44;5087148;28;21075;-72
2023/10/21 03:28:53;;;;;;;0.60;0.50;;;;;;;13.97;73.33;95792.47;5082277;28;20445;-71
2023/10/21 03:31:21;;;;;;;1.10;0.70;;;;;;;13.92;73.58;95783.53;5080253;28;20503;-72
2023/10/21 03:33:48;;;;;;;0.50;0.50;;;;;;;13.89;73.51;95793.06;5079649;28;20477;-71
2023/10/21 03:36:14;;;;;;;1.13;0.60;;;;;;;13.86;73.83;95799.06;5085083;28;20453;-71
2023/10/21 03:38:42;;;;;;;1.52;0.55;;;;;;;13.88;73.51;95810.47;5086136;28;20228;-72
2023/10/21 03:41:11;;;;;;;0.50;0.50;;;;;;;13.84;73.93;95814.84;5086400;28;20196;-71
2023/10/21 03:43:38;;;;;;;0.65;0.50;;;;;;;13.85;73.61;95821.91;5084610;28;20493;-71
2023/10/21 03:46:06;;;;;;;0.80;0.50;;;;;;;13.84;73.82;95819.47;5089684;28;20199;-71
2023/10/21 03:48:32;;;;;;;0.80;0.60;;;;;;;13.86;73.57;95823.53;5081036;28;20461;-71
2023/10/21 03:51:04;;;;;;;1.50;0.70;;;;;;;13.81;73.93;95815.38;5085636;28;20458;-71
2023/10/21 03:53:31;;;;;;;1.13;0.50;;;;;;;13.84;74.02;95820.28;5083979;28;20991;-71
2023/10/21 03:55:58;;;;;;;1.23;0.50;;;;;;;13.78;73.72;95826.81;5079038;28;20197;-72
2023/10/21 03:58:27;;;;;;;0.80;0.50;;;;;;;13.67;74.15;95825.19;5085599;28;20485;-71
2023/10/21 04:00:56;;;;;;;0.80;0.60;;;;;;;13.74;73.92;95837.41;5086948;28;20450;-71
2023/10/21 04:03:24;;;;;;;0.50;0.50;;;;;;;13.78;73.50;95826.81;5079771;28;20497;-71
2023/10/21 04:05:51;;;;;;;0.85;0.50;;;;;;;13.72;73.87;95836.06;5084825;28;20462;-71
2023/10/21 04:08:18;;;;;;;1.83;0.60;;;;;;;13.70;74.23;95839.06;5082563;28;20310;-72
2023/10/21 04:10:45;;;;;;;0.70;0.60;;;;;;;13.78;73.70;95843.13;5085944;28;21012;-71
2023/10/21 04:13:12;;;;;;;1.20;0.60;;;;;;;13.74;73.85;95847.47;5076524;28;20492;-71
2023/10/21 04:15:40;;;;;;;1.67;0.53;;;;;;;13.71;74.08;95848.03;5077534;28;20460;-72
2023/10/21 04:18:07;;;;;;;0.70;0.50;;;;;;;13.73;74.00;95859.44;5082593;28;20992;-72
2023/10/21 04:20:34;;;;;;;1.10;0.60;;;;;;;13.69;74.00;95866.53;5087374;28;20442;-72
2023/10/21 04:23:00;;;;;;;0.65;0.50;;;;;;;13.63;74.14;95859.50;5086938;28;20560;-71
2023/10/21 04:25:28;;;;;;;0.90;0.50;;;;;;;13.68;74.09;95864.88;5081689;28;20312;-71
2023/10/21 04:27:55;;;;;;;0.90;0.60;;;;;;;13.77;73.72;95863.25;5078619;28;20970;-71
2023/10/21 04:30:22;;;;;;;6.03;0.63;;;;;;;13.70;73.45;95863.53;5080672;28;20203;-72
2023/10/21 04:32:50;;;;;;;1.50;0.60;;;;;;;13.75;73.56;95865.41;5076957;28;20481;-71
2023/10/21 04:35:17;;;;;;;1.00;0.60;;;;;;;13.92;73.26;95876.81;5085654;28;20446;-71
2023/10/21 04:37:44;;;;;;;0.93;0.60;;;;;;;13.87;73.47;95878.72;5083008;28;20504;-72
2023/10/21 04:40:12;;;;;;;1.00;0.57;;;;;;;13.93;73.25;95892.03;5084562;28;20450;-72
2023/10/21 04:42:39;;;;;;;0.80;0.50;;;;;;;13.85;73.61;95886.34;5073973;28;20476;-71
2023/10/21 04:45:07;;;;;;;3.00;0.60;;;;;;;13.75;73.66;95887.16;5084881;28;20460;-71
2023/10/21 04:47:34;;;;;;;0.60;0.50;;;;;;;13.86;73.57;95899.66;5084704;28;20458;-71
2023/10/21 04:50:02;;;;;;;0.70;0.60;;;;;;;13.83;73.82;95902.94;5078468;28;20957;-71
2023/10/21 04:52:29;;;;;;;0.80;0.60;;;;;;;13.82;73.63;95901.31;5082212;28;20867;-71
2023/10/21 04:54:56;;;;;;;0.70;0.60;;;;;;;13.73;73.99;95901.03;5079232;28;20458;-72
2023/10/21 04:57:22;;;;;;;0.60;0.60;;;;;;;13.75;74.05;95906.19;5079966;28;20917;-72
2023/10/21 04:59:49;;;;;;;0.75;0.52;;;;;;;13.76;73.91;95911.38;5084503;28;20450;-72
2023/10/21 05:02:16;;;;;;;0.87;0.60;;;;;;;13.67;74.15;95915.72;5079808;28;20758;-72
2023/10/21 05:04:43;;;;;;;2.40;0.60;;;;;;;13.73;73.95;95916.53;5084369;28;20476;-71
2023/10/21 05:07:11;;;;;;;0.90;0.70;;;;;;;13.70;74.33;95933.38;5073781;28;20525;-72
2023/10/21 05:09:39;;;;;;;0.80;0.70;;;;;;;13.63;74.21;95932.88;5091174;28;21016;-71
2023/10/21 05:12:06;;;;;;;2.50;0.67;;;;;;;13.63;74.36;95933.69;5087495;28;20442;-72
2023/10/21 05:14:34;;;;;;;1.10;0.60;;;;;;;13.68;74.78;95935.56;5091818;28;20449;-71
2023/10/21 05:17:01;;;;;;;2.20;0.70;;;;;;;13.72;74.58;95952.97;5084237;28;20280;-71
2023/10/21 05:19:28;;;;;;;0.93;0.50;;;;;;;13.75;74.39;95942.38;5087043;28;20485;-72
2023/10/21 05:21:55;;;;;;;1.43;0.60;;;;;;;13.84;74.23;95956.22;5088097;28;20462;-71
2023/10/21 05:24:23;;;;;;;0.80;0.70;;;;;;;13.80;74.38;95957.84;5090194;28;20450;-72
2023/10/21 05:26:50;;;;;;;0.90;0.70;;;;;;;13.91;74.06;95972.25;5088515;28;20441;-71
2023/10/21 05:29:17;;;;;;;1.33;0.60;;;;;;;13.83;74.41;95970.09;5084455;28;20453;-71
2023/10/21 05:31:43;;;;;;;0.97;0.60;;;;;;;13.83;74.52;95980.97;5092534;28;20532;-71
2023/10/21 05:34:11;;;;;;;2.70;0.63;;;;;;;13.87;74.53;95980.16;5089730;28;20496;-71
2023/10/21 05:36:38;;;;;;;1.60;0.60;;;;;;;13.86;74.87;95994.84;5080098;28;20499;-71
2023/10/21 05:39:05;;;;;;;0.80;0.60;;;;;;;13.92;74.44;95996.47;5090032;28;20877;-72
2023/10/21 05:41:33;;;;;;;2.10;0.70;;;;;;;13.97;74.52;96003.81;5078098;28;20470;-72
2023/10/21 05:44:00;;;;;;;1.00;0.60;;;;;;;13.97;74.67;96007.31;5083463;28;20557;-71
2023/10/21 05:46:27;;;;;;;1.63;0.70;;;;;;;14.00;74.68;96014.94;5084760;28;20804;-71
2023/10/21 05:48:54;;;;;;;1.00;0.50;;;;;;;14.03;74.65;96019.81;5085435;28;20554;-71
2023/10/21 05:51:20;;;;;;;1.25;0.70;;;;;;;14.07;74.57;96026.34;5084697;28;20557;-71
2023/10/21 05:53:47;;;;;;;0.90;0.70;;;;;;;14.07;74.61;96034.50;5086058;28;20270;-71
2023/10/21 05:56:16;;;;;;;1.20;0.57;;;;;;;14.19;74.14;96038.88;5078923;28;20461;-72
2023/10/21 05:58:44;;;;;;;0.60;0.50;;;;;;;14.10;74.42;96047.56;5081243;28;20473;-71
2023/10/21 06:01:11;;;;;;;1.03;0.70;;;;;;;14.01;74.79;96037.50;5087901;28;20445;-70
2023/10/21 06:03:39;;;;;;;1.40;1.00;;;;;;;14.02;74.94;96050.03;5084603;28;20466;-71
2023/10/21 06:06:06;;;;;;;0.60;0.50;;;;;;;13.90;75.21;96044.88;5086640;28;20459;-71
2023/10/21 06:08:33;;;;;;;0.80;0.60;;;;;;;14.03;74.74;96054.38;5089379;28;20447;-70
2023/10/21 06:11:00;;;;;;;1.67;0.80;;;;;;;14.04;74.77;96062.25;5087598;28;20499;-70
2023/10/21 06:13:26;;;;;;;0.93;0.60;;;;;;;13.94;75.49;96064.19;5070958;28;20472;-71
2023/10/21 06:15:55;;;;;;;1.10;0.67;;;;;;;13.95;75.50;96072.06;5074281;28;20196;-71
2023/10/21 06:18:21;;;;;;;0.83;0.50;;;;;;;13.92;75.41;96078.06;5077982;28;20887;-71
2023/10/21 06:20:49;;;;;;;1.90;0.67;;;;;;;13.88;75.63;96090.56;5083672;28;20536;-71
2023/10/21 06:23:16;;;;;;;0.83;0.50;;;;;;;14.00;75.39;96082.94;5077109;28;20485;-71
2023/10/21 06:25:43;;;;;;;1.00;0.60;;;;;;;14.06;74.97;96098.16;5075509;28;20483;-71
2023/10/21 06:28:11;;;;;;;0.83;0.60;;;;;;;13.99;75.05;96094.91;5087850;28;20529;-71
2023/10/21 06:30:39;;;;;;;1.47;0.80;;;;;;;14.15;74.33;96101.16;5081022;28;21498;-70
2023/10/21 06:33:07;;;;;;;1.13;0.70;;;;;;;14.19;74.39;96106.88;5080120;28;20484;-70
2023/10/21 06:35:34;;;;;;;0.77;0.60;;;;;;;14.19;74.35;96112.31;5075492;28;20503;-70
2023/10/21 06:38:01;;;;;;;0.70;0.57;;;;;;;14.27;74.12;96117.22;5085596;28;20228;-70
2023/10/21 06:40:28;;;;;;;1.07;0.60;;;;;;;14.29;74.05;96125.94;5087115;28;20443;-69
2023/10/21 06:42:55;;;;;;;1.20;0.60;;;;;;;14.23;74.19;96121.56;5078935;28;20471;-70
2023/10/21 06:45:23;;;;;;;1.10;0.60;;;;;;;14.30;74.20;96138.41;5083504;28;20498;-70
2023/10/21 06:47:49;;;;;;;1.37;0.70;;;;;;;14.34;74.09;96134.06;5074347;28;20447;-70
2023/10/21 06:50:19;;;;;;;1.00;0.80;;;;;;;14.28;74.10;96141.44;5077397;28;20569;-68
2023/10/21 06:52:46;;;;;;;1.50;0.60;;;;;;;14.35;74.10;96147.41;5065991;28;20593;-67
2023/10/21 06:55:12;;;;;;;0.97;0.70;;;;;;;14.63;73.19;96147.97;5076512;28;20195;-67
2023/10/21 06:57:39;;;;;;;0.63;0.57;;;;;;;15.69;69.81;96155.00;5074927;28;20506;-67
2023/10/21 07:00:08;;;;;;;1.10;0.60;;;;;;;16.72;66.23;96156.72;5080561;28;20460;-67
2023/10/21 07:02:36;;;;;;;1.07;0.70;;;;;;;17.29;63.04;96158.59;5082161;28;20478;-68
2023/10/21 07:05:03;;;;;;;0.73;0.60;;;;;;;17.70;61.44;96158.13;5083875;28;20449;-68
2023/10/21 07:07:32;;;;;;;1.37;0.73;;;;;;;18.19;59.78;96167.84;5084727;28;20487;-68
2023/10/21 07:09:59;;;;;;;1.50;0.70;;;;;;;18.72;58.35;96174.69;5076341;28;20525;-68
2023/10/21 07:12:26;;;;;;;1.10;0.60;;;;;;;18.40;58.54;96174.63;5077411;28;20830;-68
2023/10/21 07:14:53;;;;;;;1.83;0.70;;;;;;;18.33;59.16;96196.91;5081384;28;20450;-69
2023/10/21 07:17:20;;;;;;;0.70;0.60;;;;;;;18.68;56.73;96148.16;5078196;28;21453;-68
2023/10/21 07:19:46;;;;;;;0.67;0.60;;;;;;;18.92;56.96;96194.63;5078715;28;20516;-70
2023/10/21 07:22:13;;;;;;;0.73;0.60;;;;;;;19.36;56.26;96197.66;5075883;28;20482;-69
2023/10/21 07:24:42;;;;;;;0.73;0.60;;;;;;;19.09;56.53;96214.06;5078338;28;20485;-71
2023/10/21 07:27:09;;;;;;;1.60;0.80;;;;;;;19.08;56.91;96209.72;5075281;28;20572;-71
2023/10/21 07:29:35;;;;;;;1.13;0.70;;;;;;;19.39;55.83;96205.28;5073429;28;20491;-71
2023/10/21 07:32:02;;;;;;;1.00;0.73;;;;;;;19.90;54.15;96201.53;5075858;28;20532;-71
2023/10/21 07:34:29;;;;;;;1.00;0.70;;;;;;;19.77;54.18;96210.63;5081165;28;20453;-71
2023/10/21 07:36:57;;;;;;;0.90;0.70;;;;;;;20.26;52.44;96209.81;5078052;28;20851;-71
2023/10/21 07:39:24;;;;;;;1.27;0.70;;;;;;;19.89;53.18;96210.88;5077276;28;20490;-71
2023/10/21 07:41:54;;;;;;;1.97;0.80;;;;;;;19.41;52.70;96222.25;5079221;28;20516;-69
2023/10/21 07:44:21;;;;;;;0.80;0.70;;;;;;;19.32;53.08;96229.56;5070292;28;20459;-80
2023/10/21 07:46:47;;;;;;;1.07;0.53;;;;;;;18.94;54.19;96239.81;5075870;28;20516;-80
2023/10/21 07:49:14;;;;;;;1.10;0.50;;;;;;;19.39;53.27;96235.47;5083787;28;20509;-71
2023/10/21 07:51:41;;;;;;;1.33;0.70;;;;;;;19.34;52.88;96249.28;5052880;28;20544;-71
2023/10/21 07:54:08;;;;;;;0.70;0.60;;;;;;;19.33;52.67;96260.53;5076434;28;20520;-71
2023/10/21 07:56:34;;;;;;;0.67;0.43;;;;;;;19.42;52.12;96262.31;5063888;28;20828;-71
2023/10/21 07:59:03;;;;;;;2.60;0.70;;;;;;;18.20;54.88;96273.50;5071004;28;20492;-71
2023/10/21 08:01:30;;;;;;;0.80;0.60;;;;;;;17.37;57.94;96275.53;5063118;28;20450;-71
2023/10/21 08:03:56;;;;;;;1.20;0.87;;;;;;;16.92;59.51;96287.69;5074809;28;20458;-71
2023/10/21 08:06:23;;;;;;;1.27;0.67;;;;;;;16.71;60.21;96286.22;5077167;28;21097;-71
2023/10/21 08:08:50;;;;;;;0.80;0.70;;;;;;;17.00;59.31;96283.53;5077274;28;20453;-71
2023/10/21 08:11:17;;;;;;;1.00;0.90;;;;;;;17.88;56.27;96288.69;5080560;28;20579;-71
2023/10/21 08:13:44;;;;;;;1.43;0.60;;;;;;;18.16;55.00;96280.72;5073026;28;22185;-71
2023/10/21 08:16:12;;;;;;;0.83;0.60;;;;;;;18.21;54.79;96291.56;5070164;28;21036;-71
2023/10/21 08:18:40;;;;;;;0.70;0.50;;;;;;;18.39;54.09;96290.78;5077713;28;20506;-71
2023/10/21 08:21:07;;;;;;;1.03;0.60;;;;;;;18.70;52.77;96292.00;5081687;28;20453;-71
2023/10/21 08:23:33;;;;;;;0.60;0.60;;;;;;;19.00;52.76;96289.91;5082350;28;20469;-71
2023/10/21 08:26:00;;;;;;;0.83;0.60;;;;;;;18.73;52.44;96305.13;5080165;28;20540;-72
2023/10/21 08:28:27;;;;;;;1.00;0.73;;;;;;;18.99;51.88;96299.25;5065077;28;20531;-72
2023/10/21 08:30:54;;;;;;;1.03;0.60;;;;;;;18.72;52.57;96308.97;5074883;28;20530;-72
2023/10/21 08:33:34;;;;;;;0.70;0.50;;;;;;;19.00;51.24;96320.06;5338168;22;20516;-71
2023/10/21 08:36:01;;;;;;;1.00;0.70;;;;;;;19.04;50.54;96327.41;5079711;28;20590;-71
2023/10/21 08:38:28;;;;;;;0.70;0.67;;;;;;;19.00;50.70;96325.56;5094103;28;20473;-71
2023/10/21 08:40:54;;;;;;;0.90;0.60;;;;;;;19.40;49.59;96324.91;5082221;28;20539;-72
2023/10/21 08:43:22;;;;;;;0.80;0.50;;;;;;;19.51;49.93;96324.72;5092170;28;20950;-71
2023/10/21 08:45:49;;;;;;;0.80;0.70;;;;;;;20.00;48.41;96327.66;5061871;28;20562;-72
2023/10/21 08:48:17;;;;;;;1.10;0.63;;;;;;;19.99;47.58;96322.47;5070911;28;20453;-72
2023/10/21 08:50:49;;;;;;;1.40;0.50;;;;;;;19.67;47.25;96339.81;5079577;28;20487;-72
2023/10/21 08:53:16;;;;;;;0.60;0.53;;;;;;;19.71;47.04;96325.19;5072160;28;20492;-72
2023/10/21 08:55:43;;;;;;;0.83;0.50;;;;;;;19.61;47.62;96335.53;5062393;28;20681;-72
2023/10/21 08:58:10;;;;;;;0.83;0.50;;;;;;;19.88;46.93;96334.75;5057567;28;20543;-72
2023/10/21 09:00:38;;;;;;;0.93;0.60;;;;;;;19.96;46.28;96340.38;5066442;28;20500;-71
2023/10/21 09:03:05;;;;;;;1.10;0.60;;;;;;;19.83;46.62;96354.88;5080397;28;20491;-72
2023/10/21 09:05:34;;;;;;;1.33;0.50;;;;;;;19.11;48.71;96340.75;5080469;28;20512;-72
2023/10/21 09:08:02;;;;;;;0.50;0.50;;;;;;;18.61;50.77;96356.81;5074474;28;21104;-72
2023/10/21 09:10:30;;;;;;;1.07;0.60;;;;;;;18.28;51.08;96363.25;5071613;28;21277;-71
2023/10/21 09:12:57;;;;;;;1.40;0.70;;;;;;;17.77;53.06;96364.63;5072024;28;20477;-71
2023/10/21 09:15:35;;;;;;;1.20;0.67;;;;;;;17.79;52.50;96373.38;5071346;28;20459;-71
2023/10/21 09:18:09;;;;;;;0.93;0.50;;;;;;;17.89;52.46;96388.03;5065107;28;20462;-71
2023/10/21 09:20:38;;;;;;;1.30;0.70;;;;;;;18.56;50.89;96388.91;5066035;28;20453;-72
2023/10/21 09:23:06;;;;;;;1.17;0.50;;;;;;;19.22;49.46;96394.31;5068383;28;20478;-72
2023/10/21 09:25:33;;;;;;;1.33;0.60;;;;;;;19.68;47.70;96404.59;5070058;28;20458;-72
2023/10/21 09:28:02;;;;;;;0.97;0.60;;;;;;;20.30;46.66;96396.84;5052742;28;20462;-72
2023/10/21 09:30:30;;;;;;;0.80;0.60;;;;;;;21.54;44.22;96398.28;5068377;28;20475;-72
2023/10/21 09:33:02;;;;;;;1.43;1.00;;;;;;;21.24;43.13;96405.34;5068199;28;20462;-72
2023/10/21 09:35:30;;;;;;;1.80;1.00;;;;;;;20.74;45.13;96399.03;5055370;28;20457;-72
2023/10/21 09:37:57;;;;;;;10.70;7.33;;;;;;;21.25;44.37;96411.66;5067417;28;20464;-72
2023/10/21 09:40:25;;;;;;;1.87;1.40;;;;;;;21.65;43.42;96398.88;5069804;28;20564;-72
2023/10/21 09:42:53;;;;;;;3.40;1.83;;;;;;;22.03;42.71;96402.88;5075991;28;20473;-72
2023/10/21 09:45:21;;;;;;;1.50;0.87;;;;;;;21.72;43.07;96407.50;5055987;28;20456;-72
2023/10/21 09:47:51;;;;;;;1.10;0.77;;;;;;;21.51;43.39;96409.94;5075572;28;20461;-72
2023/10/21 09:50:18;;;;;;;0.90;0.60;;;;;;;21.66;42.94;96411.50;5078598;28;20524;-72
2023/10/21 09:52:52;;;;;;;0.80;0.60;;;;;;;20.96;43.38;96414.75;5064433;28;20546;-71
2023/10/21 09:55:24;;;;;;;2.37;0.70;;;;;;;20.72;44.07;96410.31;5073629;28;20500;-72
2023/10/21 09:57:54;;;;;;;0.77;0.70;;;;;;;21.13;43.74;96415.72;5070099;28;20463;-72
2023/10/21 10:00:21;;;;;;;0.90;0.73;;;;;;;21.13;43.97;96414.91;5075553;28;20609;-72
2023/10/21 10:02:48;;;;;;;1.10;0.80;;;;;;;20.82;43.91;96420.28;5064307;28;20489;-72
2023/10/21 10:05:15;;;;;;;1.03;0.93;;;;;;;21.39;43.28;96413.25;5075810;28;20453;-75
2023/10/21 10:07:43;;;;;;;0.93;0.67;;;;;;;21.09;43.31;96408.44;5078463;28;20477;-72
2023/10/21 10:10:10;;;;;;;1.23;0.70;;;;;;;21.44;44.48;96415.88;5074928;28;20500;-70
2023/10/21 10:12:41;;;;;;;0.80;0.80;;;;;;;20.93;44.54;96429.13;5071704;28;20445;-76
2023/10/21 10:15:33;;;;;;;1.37;0.70;;;;;;;20.98;43.75;96418.03;5060385;28;20471;-69
2023/10/21 10:18:01;;;;;;;0.80;0.60;;;;;;;21.54;42.54;96414.00;5057880;28;21079;-73
2023/10/21 10:20:28;;;;;;;0.70;0.53;;;;;;;22.04;41.36;96400.94;5079190;28;20481;-73
2023/10/21 10:23:03;;;;;;;0.90;0.60;;;;;;;22.45;40.68;96408.88;5077539;28;20550;-75
2023/10/21 10:25:34;;;;;;;1.07;0.77;;;;;;;23.11;39.21;96405.03;5068539;28;20495;-71
2023/10/21 10:28:04;;;;;;;0.93;0.60;;;;;;;23.72;37.85;96405.06;5074131;28;20483;-73
2023/10/21 10:30:33;;;;;;;1.63;0.80;;;;;;;24.22;36.58;96397.00;5070998;28;20460;-73
2023/10/21 10:33:07;;;;;;;1.10;0.60;;;;;;;22.99;37.85;96399.34;5071254;28;20465;-73
2023/10/21 10:35:37;;;;;;;0.70;0.60;;;;;;;22.91;38.32;96410.34;5062022;28;21203;-73
2023/10/21 10:38:05;;;;;;;0.80;0.60;;;;;;;23.20;37.62;96401.47;5073616;28;20466;-73
2023/10/21 10:40:35;;;;;;;1.23;0.70;;;;;;;22.50;39.08;96405.97;5079659;28;20494;-73
2023/10/21 10:43:04;;;;;;;0.90;0.60;;;;;;;22.30;38.63;96407.38;5078564;28;20471;-73
2023/10/21 10:45:35;;;;;;;0.77;0.53;;;;;;;20.95;41.54;96424.13;5077780;28;20481;-72
2023/10/21 10:48:03;;;;;;;1.50;0.90;;;;;;;20.64;42.71;96419.28;5081349;28;20967;-74
2023/10/21 10:50:31;;;;;;;0.90;0.63;;;;;;;19.94;42.35;96425.00;5078314;28;20997;-71
2023/10/21 10:52:59;;;;;;;0.80;0.60;;;;;;;18.96;45.02;96435.00;5069351;28;21022;-71
2023/10/21 10:55:26;;;;;;;1.43;0.70;;;;;;;18.61;45.40;96438.22;5072512;28;20450;-72
2023/10/21 10:57:53;;;;;;;1.03;0.77;;;;;;;17.98;46.35;96430.94;5079362;28;20944;-72
2023/10/21 11:00:25;;;;;;;1.90;0.70;;;;;;;18.06;46.81;96427.56;5072624;28;20515;-71
2023/10/21 11:02:53;;;;;;;1.20;0.80;;;;;;;18.15;47.50;96435.16;5062819;28;20489;-70
2023/10/21 11:05:21;;;;;;;1.23;0.70;;;;;;;18.29;48.50;96433.34;5068303;28;20463;-70
2023/10/21 11:07:49;;;;;;;1.10;0.80;;;;;;;18.29;48.60;96430.59;5076493;28;20452;-70
2023/10/21 11:10:20;;;;;;;1.60;0.70;;;;;;;18.62;47.13;96437.91;5058565;28;20458;-70
2023/10/21 11:12:48;;;;;;;1.23;0.70;;;;;;;18.52;49.14;96435.25;5065485;28;20609;-70
2023/10/21 11:15:15;;;;;;;0.77;0.67;;;;;;;18.29;47.17;96431.44;5068307;28;20488;-70
2023/10/21 11:17:43;;;;;;;1.00;0.70;;;;;;;18.21;48.13;96432.06;5064453;28;20473;-71
2023/10/21 11:20:13;;;;;;;1.17;0.60;;;;;;;18.50;46.66;96432.03;5068695;28;20514;-69
2023/10/21 11:22:40;;;;;;;2.20;0.80;;;;;;;18.33;47.44;96439.88;5072830;28;20469;-74
2023/10/21 11:25:07;;;;;;;1.30;0.60;;;;;;;18.69;46.90;96435.66;5069479;28;20486;-71
2023/10/21 11:27:35;;;;;;;2.43;0.67;;;;;;;18.83;45.83;96446.72;5076836;28;20457;-70
2023/10/21 11:30:07;;;;;;;1.53;0.80;;;;;;;19.12;45.22;96432.88;5081820;28;20442;-71
2023/10/21 11:32:35;;;;;;;1.10;0.70;;;;;;;18.75;45.48;96434.47;5084777;28;20499;-71
2023/10/21 11:35:02;;;;;;;1.00;0.60;;;;;;;18.98;45.78;96438.28;5081171;28;20449;-71
2023/10/21 11:37:31;;;;;;;1.00;0.70;;;;;;;18.77;45.70;96439.66;5072617;28;20878;-70